Time;durP1;ratioP1;P1;durP2;ratioP2;P2;SDS_P1;SDS_P2;PMS_P1;PMS_P2;Temp;Humidity;BMP_temperature;BMP_pressure;BME280_temperature;BME280_humidity;BME280_pressure;Samples;Min_cycle;Max_cycle;Signal;HPM_P1;HPM_P2
2021/01/10 00:00:24;;;;;;;21.38;16.40;;;0.70;99.90;;;;;;5028181;28;20025;-54
2021/01/10 00:02:51;;;;;;;24.30;15.95;;;0.70;99.90;;;;;;5028007;28;20402;-53
2021/01/10 00:05:24;;;;;;;23.52;15.25;;;0.70;99.90;;;;;;5027918;28;20025;-52
2021/01/10 00:07:51;;;;;;;22.58;15.27;;;0.70;99.90;;;;;;5027766;28;20053;-55
2021/01/10 00:10:17;;;;;;;23.38;13.68;;;0.70;99.90;;;;;;5028014;28;20041;-50
2021/01/10 00:12:44;;;;;;;24.38;14.70;;;0.70;99.90;;;;;;5027955;28;20314;-51
2021/01/10 00:15:12;;;;;;;24.38;14.77;;;0.70;99.90;;;;;;5028019;28;20036;-50
2021/01/10 00:17:38;;;;;;;24.65;16.35;;;0.80;99.90;;;;;;5027770;28;20052;-51
2021/01/10 00:20:09;;;;;;;19.02;14.02;;;0.80;99.90;;;;;;5027970;28;20025;-49
2021/01/10 00:22:35;;;;;;;22.08;15.68;;;0.80;99.90;;;;;;5027738;28;20033;-50
2021/01/10 00:25:00;;;;;;;17.65;12.23;;;0.80;99.90;;;;;;5027776;28;20212;-55
2021/01/10 00:27:29;;;;;;;19.42;13.50;;;0.80;99.90;;;;;;5027376;28;20598;-55
2021/01/10 00:29:54;;;;;;;19.63;13.93;;;0.80;99.90;;;;;;5027674;28;20036;-49
2021/01/10 00:32:20;;;;;;;20.10;12.85;;;0.80;99.90;;;;;;5028218;28;20033;-52
2021/01/10 00:34:46;;;;;;;24.10;15.15;;;0.80;99.90;;;;;;5028477;28;20053;-49
2021/01/10 00:37:14;;;;;;;21.42;14.05;;;0.80;99.90;;;;;;5028769;28;20033;-57
2021/01/10 00:39:40;;;;;;;19.23;12.30;;;0.80;99.90;;;;;;5012026;28;20025;-55
2021/01/10 00:42:10;;;;;;;20.80;12.43;;;0.80;99.90;;;;;;5028503;28;20021;-55
2021/01/10 00:44:36;;;;;;;16.50;11.82;;;0.90;99.90;;;;;;5029152;28;20052;-52
2021/01/10 00:47:05;;;;;;;18.05;12.68;;;0.90;99.90;;;;;;5029667;28;20266;-51
2021/01/10 00:49:31;;;;;;;17.02;11.82;;;0.80;99.90;;;;;;5029619;28;20191;-53
2021/01/10 00:51:57;;;;;;;16.08;11.60;;;0.80;99.90;;;;;;5029725;28;20531;-53
2021/01/10 00:54:22;;;;;;;15.00;11.35;;;0.90;99.90;;;;;;5029544;28;20041;-48
2021/01/10 00:56:48;;;;;;;20.58;12.32;;;0.80;99.90;;;;;;5030009;28;20071;-47
2021/01/10 00:59:14;;;;;;;17.83;12.43;;;0.70;99.90;;;;;;5029300;28;20105;-47
2021/01/10 01:01:40;;;;;;;17.77;12.05;;;0.60;99.90;;;;;;5029315;28;20032;-48
2021/01/10 01:04:05;;;;;;;17.70;11.75;;;0.60;99.90;;;;;;5029360;28;20025;-47
2021/01/10 01:06:31;;;;;;;16.55;11.80;;;0.60;99.90;;;;;;5029617;28;20029;-54
2021/01/10 01:08:57;;;;;;;18.52;12.30;;;0.60;99.90;;;;;;5029291;28;20021;-53
2021/01/10 01:11:30;;;;;;;18.52;12.90;;;0.60;99.90;;;;;;5030049;28;20488;-55
2021/01/10 01:13:56;;;;;;;19.45;12.35;;;0.60;99.90;;;;;;5029953;28;20351;-51
2021/01/10 01:16:22;;;;;;;24.40;12.88;;;0.60;99.90;;;;;;5030565;28;20084;-52
2021/01/10 01:18:47;;;;;;;19.90;12.15;;;0.60;99.90;;;;;;5033331;28;20060;-49
2021/01/10 01:21:18;;;;;;;20.80;12.93;;;0.60;99.90;;;;;;5034328;28;20029;-51
2021/01/10 01:23:43;;;;;;;17.25;11.73;;;0.60;99.90;;;;;;5033647;28;20018;-52
2021/01/10 01:26:16;;;;;;;19.05;12.32;;;0.60;99.90;;;;;;5034462;28;20029;-54
2021/01/10 01:28:43;;;;;;;16.58;12.25;;;0.60;99.90;;;;;;5034114;28;20125;-53
2021/01/10 01:31:19;;;;;;;17.05;11.98;;;0.50;99.90;;;;;;5033941;28;20504;-50
2021/01/10 01:33:45;;;;;;;17.08;11.75;;;0.60;99.90;;;;;;5035060;28;20683;-51
2021/01/10 01:36:12;;;;;;;17.95;12.70;;;0.50;99.90;;;;;;5033940;28;20621;-52
2021/01/10 01:38:42;;;;;;;16.75;12.57;;;0.40;99.90;;;;;;5033673;28;20025;-52
2021/01/10 01:41:08;;;;;;;18.98;12.20;;;0.50;99.90;;;;;;5034016;28;20511;-54
2021/01/10 01:43:37;;;;;;;16.67;12.77;;;0.40;99.90;;;;;;5033523;28;20049;-57
2021/01/10 01:46:04;;;;;;;19.63;13.15;;;0.40;99.90;;;;;;5033879;28;20495;-55
2021/01/10 01:48:30;;;;;;;16.67;11.98;;;0.30;99.90;;;;;;5033885;28;20027;-52
2021/01/10 01:51:00;;;;;;;21.45;14.02;;;0.30;99.90;;;;;;5033694;28;20515;-56
2021/01/10 01:53:26;;;;;;;16.48;11.82;;;0.20;99.90;;;;;;5033534;28;20521;-53
2021/01/10 01:55:57;;;;;;;17.92;12.15;;;0.20;99.90;;;;;;5033647;28;20033;-53
2021/01/10 01:58:24;;;;;;;17.40;12.18;;;0.20;99.90;;;;;;5033478;28;20035;-53
2021/01/10 02:00:50;;;;;;;17.80;12.75;;;0.20;99.90;;;;;;5033413;28;20510;-54
2021/01/10 02:03:38;;;;;;;19.30;12.68;;;0.20;99.90;;;;;;5032990;28;20025;-55
2021/01/10 02:06:13;;;;;;;18.00;12.85;;;0.20;99.90;;;;;;5033327;28;20100;-56
2021/01/10 02:08:39;;;;;;;19.05;12.32;;;0.20;99.90;;;;;;5033381;28;20108;-53
2021/01/10 02:11:07;;;;;;;22.25;13.90;;;0.30;99.90;;;;;;5032958;28;20534;-55
2021/01/10 02:13:34;;;;;;;21.48;13.52;;;0.20;99.90;;;;;;5032926;28;20064;-56
2021/01/10 02:16:03;;;;;;;19.65;13.73;;;0.30;99.90;;;;;;5033134;28;20029;-54
2021/01/10 02:18:32;;;;;;;17.67;12.65;;;0.20;99.90;;;;;;5032070;28;20029;-53
2021/01/10 02:21:05;;;;;;;20.77;12.40;;;0.10;99.90;;;;;;5033108;28;20037;-54
2021/01/10 02:23:32;;;;;;;19.13;13.68;;;0.10;99.90;;;;;;5032699;28;20032;-58
2021/01/10 02:25:58;;;;;;;18.77;12.90;;;0.10;99.90;;;;;;5033098;28;20060;-55
2021/01/10 02:28:25;;;;;;;19.05;12.95;;;0.10;99.90;;;;;;5032594;28;20026;-56
2021/01/10 02:30:52;;;;;;;19.23;13.18;;;0.10;99.90;;;;;;5032254;28;20111;-55
2021/01/10 02:33:44;;;;;;;18.27;12.93;;;0.10;99.90;;;;;;5032763;28;20076;-52
2021/01/10 02:36:18;;;;;;;19.95;12.55;;;0.00;99.90;;;;;;5032777;28;20429;-57
2021/01/10 02:38:50;;;;;;;19.88;13.75;;;-0.10;99.90;;;;;;5032616;28;20030;-54
2021/01/10 02:41:25;;;;;;;19.35;13.15;;;-0.10;99.90;;;;;;5032588;28;20029;-54
2021/01/10 02:44:17;;;;;;;20.48;13.32;;;-0.10;99.90;;;;;;5032509;28;20492;-56
2021/01/10 02:46:48;;;;;;;21.27;14.57;;;-0.10;99.90;;;;;;5032428;28;20030;-53
2021/01/10 02:49:13;;;;;;;19.60;12.45;;;-0.10;99.90;;;;;;5032910;28;20107;-55
2021/01/10 02:51:39;;;;;;;21.38;14.68;;;-0.10;99.90;;;;;;5032679;28;20480;-53
2021/01/10 02:54:05;;;;;;;21.42;14.90;;;-0.10;99.90;;;;;;5032326;28;20040;-51
2021/01/10 02:56:47;;;;;;;19.30;13.40;;;0.00;99.90;;;;;;5032373;28;20286;-57
2021/01/10 02:59:16;;;;;;;16.67;12.93;;;-0.10;99.90;;;;;;5032465;28;20393;-56
2021/01/10 03:01:44;;;;;;;18.90;12.55;;;-0.10;99.90;;;;;;5032229;28;20018;-52
2021/01/10 03:04:10;;;;;;;21.50;14.35;;;-0.10;99.90;;;;;;5032036;28;20021;-57
2021/01/10 03:06:36;;;;;;;19.23;12.32;;;-0.10;99.90;;;;;;5032273;28;20025;-55
2021/01/10 03:09:01;;;;;;;17.73;11.88;;;0.00;99.90;;;;;;5032195;28;20618;-53
2021/01/10 03:11:27;;;;;;;19.27;12.63;;;-0.20;99.90;;;;;;5032112;28;20095;-54
2021/01/10 03:13:53;;;;;;;18.75;12.55;;;-0.20;99.90;;;;;;5032059;28;20041;-55
2021/01/10 03:16:20;;;;;;;20.52;13.73;;;-0.20;99.90;;;;;;5032546;28;20025;-50
2021/01/10 03:18:45;;;;;;;19.38;12.85;;;-0.20;99.90;;;;;;5031982;28;20554;-53
2021/01/10 03:21:11;;;;;;;23.42;15.10;;;-0.20;99.90;;;;;;5031906;28;20033;-50
2021/01/10 03:23:36;;;;;;;22.90;14.75;;;-0.20;99.90;;;;;;5031684;28;20556;-52
2021/01/10 03:26:02;;;;;;;20.80;14.15;;;-0.20;99.90;;;;;;5031901;28;20108;-50
2021/01/10 03:28:27;;;;;;;21.05;13.40;;;-0.10;99.90;;;;;;5032183;28;20029;-52
2021/01/10 03:30:53;;;;;;;22.42;15.02;;;-0.20;99.90;;;;;;5031570;28;20029;-52
2021/01/10 03:33:18;;;;;;;26.08;13.02;;;-0.30;99.90;;;;;;5031455;28;20026;-54
2021/01/10 03:35:44;;;;;;;19.85;13.07;;;-0.40;99.90;;;;;;5031668;28;20030;-53
2021/01/10 03:38:09;;;;;;;21.85;12.73;;;-0.50;99.90;;;;;;5031542;28;20080;-52
2021/01/10 03:40:35;;;;;;;18.40;12.43;;;-0.60;99.90;;;;;;5031281;28;20034;-56
2021/01/10 03:43:01;;;;;;;19.05;12.45;;;-0.70;99.90;;;;;;5031375;28;20025;-54
2021/01/10 03:45:27;;;;;;;18.58;12.63;;;-0.70;99.90;;;;;;5031556;28;20025;-53
2021/01/10 03:47:52;;;;;;;18.80;12.68;;;-0.70;99.90;;;;;;5031686;28;20090;-51
2021/01/10 03:50:18;;;;;;;19.90;12.52;;;-0.60;99.90;;;;;;5031510;28;20492;-51
2021/01/10 03:52:43;;;;;;;16.33;11.27;;;-0.70;99.90;;;;;;5031339;28;20085;-52
2021/01/10 03:55:09;;;;;;;17.15;12.13;;;-0.70;99.90;;;;;;5031474;28;20041;-55
2021/01/10 03:57:38;;;;;;;21.65;12.27;;;-0.70;99.90;;;;;;5031421;28;20480;-56
2021/01/10 04:00:06;;;;;;;16.13;11.30;;;-0.70;99.90;;;;;;5031283;28;20033;-53
2021/01/10 04:02:32;;;;;;;19.75;12.18;;;-0.60;99.90;;;;;;5031462;28;20021;-51
2021/01/10 04:04:58;;;;;;;19.33;13.23;;;-0.60;99.90;;;;;;5031007;28;20048;-54
2021/01/10 04:07:23;;;;;;;16.55;12.63;;;-0.60;99.90;;;;;;5029788;28;20075;-57
2021/01/10 04:09:49;;;;;;;17.65;11.60;;;-0.60;99.90;;;;;;5030774;28;20041;-54
2021/01/10 04:12:14;;;;;;;20.52;12.35;;;-0.70;99.90;;;;;;5031081;28;20029;-53
2021/01/10 04:14:40;;;;;;;15.65;11.30;;;-0.50;99.90;;;;;;5030883;28;20148;-53
2021/01/10 04:17:05;;;;;;;16.75;11.35;;;-0.50;99.90;;;;;;5031137;28;20036;-55
2021/01/10 04:19:31;;;;;;;18.63;11.68;;;-0.50;99.90;;;;;;5031122;28;20041;-52
2021/01/10 04:21:56;;;;;;;21.75;12.20;;;-0.50;99.90;;;;;;5031043;28;20140;-55
2021/01/10 04:24:22;;;;;;;17.98;11.65;;;-0.50;99.90;;;;;;5030662;28;20396;-54
2021/01/10 04:26:49;;;;;;;18.92;11.57;;;-0.40;99.90;;;;;;5030966;28;20029;-53
2021/01/10 04:29:17;;;;;;;18.75;11.55;;;-0.50;99.90;;;;;;5031138;28;20026;-56
2021/01/10 04:31:42;;;;;;;18.00;11.27;;;-0.50;99.90;;;;;;5030896;28;20024;-53
2021/01/10 04:34:08;;;;;;;15.82;11.15;;;-0.50;99.90;;;;;;5030615;28;20392;-52
2021/01/10 04:36:33;;;;;;;18.35;11.43;;;-0.50;99.90;;;;;;5030824;28;20036;-55
2021/01/10 04:38:59;;;;;;;17.83;11.00;;;-0.50;99.90;;;;;;5030652;28;20037;-50
2021/01/10 04:41:25;;;;;;;18.75;10.55;;;-0.50;99.90;;;;;;5030973;28;20022;-51
2021/01/10 04:43:54;;;;;;;18.83;11.93;;;-0.50;99.90;;;;;;5030515;28;20029;-55
2021/01/10 04:46:21;;;;;;;15.30;10.32;;;-0.50;99.90;;;;;;5030172;28;20046;-55
2021/01/10 04:48:48;;;;;;;18.33;10.90;;;-0.50;99.90;;;;;;5030793;28;20452;-54
2021/01/10 04:51:14;;;;;;;14.75;9.90;;;-0.40;99.90;;;;;;5030450;28;20444;-55
2021/01/10 04:53:43;;;;;;;13.38;9.98;;;-0.40;99.90;;;;;;5029935;28;20068;-53
2021/01/10 04:56:10;;;;;;;14.48;9.30;;;-0.40;99.90;;;;;;5030697;28;20396;-54
2021/01/10 04:58:36;;;;;;;15.48;10.43;;;-0.40;99.90;;;;;;5030794;28;20026;-52
2021/01/10 05:01:03;;;;;;;13.65;10.10;;;-0.30;99.90;;;;;;5029388;28;20071;-53
2021/01/10 05:03:33;;;;;;;16.02;9.85;;;-0.30;99.90;;;;;;5030455;28;20025;-56
2021/01/10 05:05:59;;;;;;;14.70;10.38;;;-0.30;99.90;;;;;;5030528;28;20025;-54
2021/01/10 05:08:25;;;;;;;15.05;10.63;;;-0.30;99.90;;;;;;5030487;28;20032;-50
2021/01/10 05:10:51;;;;;;;14.10;10.13;;;-0.30;99.90;;;;;;5030206;28;20179;-54
2021/01/10 05:13:16;;;;;;;15.32;10.85;;;-0.20;99.90;;;;;;5029136;28;20468;-51
2021/01/10 05:15:43;;;;;;;14.48;9.98;;;-0.30;99.90;;;;;;5030505;28;20034;-52
2021/01/10 05:18:10;;;;;;;14.82;10.35;;;-0.30;99.90;;;;;;5030451;28;20025;-56
2021/01/10 05:20:35;;;;;;;17.20;11.05;;;-0.30;99.90;;;;;;5030380;28;20052;-55
2021/01/10 05:23:01;;;;;;;15.70;11.23;;;-0.30;99.90;;;;;;5030293;28;20048;-57
2021/01/10 05:25:27;;;;;;;15.15;10.82;;;-0.30;99.90;;;;;;5030345;28;20106;-54
2021/01/10 05:27:55;;;;;;;15.43;10.85;;;-0.40;99.90;;;;;;5030303;28;20029;-55
2021/01/10 05:30:30;;;;;;;15.48;10.85;;;-0.30;99.90;;;;;;5030569;28;20412;-55
2021/01/10 05:33:08;;;;;;;14.15;10.13;;;-0.30;99.90;;;;;;5029836;28;20040;-54
2021/01/10 05:35:53;;;;;;;15.05;10.15;;;-0.40;99.90;;;;;;5030503;28;20029;-56
2021/01/10 05:38:27;;;;;;;17.08;10.88;;;-0.50;99.90;;;;;;5030662;28;20665;-56
2021/01/10 05:40:54;;;;;;;15.57;10.18;;;-0.50;99.90;;;;;;5030290;28;20033;-59
2021/01/10 05:43:20;;;;;;;14.48;9.57;;;-0.60;99.90;;;;;;5030135;28;20021;-52
2021/01/10 05:45:46;;;;;;;14.15;10.05;;;-0.60;99.90;;;;;;5030307;28;20079;-52
2021/01/10 05:48:13;;;;;;;15.40;10.38;;;-0.40;99.90;;;;;;5030194;28;20083;-55
2021/01/10 05:50:46;;;;;;;15.77;11.52;;;-0.50;99.90;;;;;;5030241;28;20087;-54
2021/01/10 05:53:15;;;;;;;18.67;11.80;;;-0.40;99.90;;;;;;5029643;28;20025;-53
2021/01/10 05:56:01;;;;;;;17.30;11.88;;;-0.30;99.90;;;;;;5030827;28;20541;-56
2021/01/10 05:58:29;;;;;;;18.00;11.88;;;-0.30;99.90;;;;;;5030127;28;20511;-52
2021/01/10 06:00:57;;;;;;;16.02;10.75;;;-0.40;99.90;;;;;;5030554;28;20329;-56
2021/01/10 06:03:24;;;;;;;17.30;10.23;;;-0.50;99.90;;;;;;5030170;28;20021;-51
2021/01/10 06:05:58;;;;;;;17.70;10.43;;;-0.50;99.90;;;;;;5034215;28;20480;-50
2021/01/10 06:08:32;;;;;;;17.75;11.48;;;-0.60;99.90;;;;;;5034156;28;20108;-52
2021/01/10 06:11:18;;;;;;;17.17;10.38;;;-0.50;99.90;;;;;;5033452;28;20025;-52
2021/01/10 06:13:54;;;;;;;16.48;10.77;;;-0.60;99.90;;;;;;5032065;28;20392;-55
2021/01/10 06:16:23;;;;;;;19.27;10.40;;;-0.50;99.90;;;;;;5033473;28;20085;-54
2021/01/10 06:18:55;;;;;;;16.35;10.73;;;-0.50;99.90;;;;;;5033193;28;20088;-54
2021/01/10 06:21:23;;;;;;;15.77;10.13;;;-0.60;99.90;;;;;;5033154;28;20121;-53
2021/01/10 06:23:50;;;;;;;17.40;10.52;;;-0.70;99.90;;;;;;5033289;28;20546;-54
2021/01/10 06:26:18;;;;;;;17.77;10.93;;;-0.80;99.90;;;;;;5033490;28;20451;-52
2021/01/10 06:28:56;;;;;;;19.55;11.73;;;-1.00;99.90;;;;;;5033341;28;20071;-50
2021/01/10 06:31:25;;;;;;;22.17;13.68;;;-1.00;99.90;;;;;;5033061;28;20030;-52
2021/01/10 06:34:04;;;;;;;20.98;11.65;;;-0.70;99.90;;;;;;5032811;28;20051;-52
2021/01/10 06:36:32;;;;;;;19.00;12.70;;;-0.60;99.90;;;;;;5032825;28;20017;-57
2021/01/10 06:39:00;;;;;;;24.13;12.05;;;-0.40;99.90;;;;;;5032796;28;20029;-52
2021/01/10 06:41:35;;;;;;;20.13;12.73;;;-0.30;99.90;;;;;;5032746;28;20018;-53
2021/01/10 06:44:06;;;;;;;21.00;12.37;;;-0.40;99.90;;;;;;5032623;28;20099;-52
2021/01/10 06:46:32;;;;;;;16.20;10.40;;;-0.60;99.90;;;;;;5032297;28;20561;-52
2021/01/10 06:49:00;;;;;;;20.30;11.30;;;-0.50;99.90;;;;;;5032690;28;20104;-55
2021/01/10 06:51:28;;;;;;;16.48;10.82;;;-0.60;99.90;;;;;;5032615;28;20084;-54
2021/01/10 06:53:55;;;;;;;15.18;10.68;;;-0.80;99.90;;;;;;5031129;28;20112;-52
2021/01/10 06:56:21;;;;;;;17.83;10.50;;;-0.90;99.90;;;;;;5032987;28;20056;-56
2021/01/10 06:59:10;;;;;;;19.55;11.90;;;-1.00;99.90;;;;;;5032435;28;20072;-52
2021/01/10 07:01:48;;;;;;;19.13;11.73;;;-0.90;99.90;;;;;;5032713;28;20489;-52
2021/01/10 07:04:18;;;;;;;18.67;11.52;;;-0.70;99.90;;;;;;5032050;28;20022;-51
2021/01/10 07:06:45;;;;;;;19.75;12.30;;;-0.60;99.90;;;;;;5032130;28;20057;-56
2021/01/10 07:09:10;;;;;;;18.33;10.88;;;-0.70;99.90;;;;;;5032246;28;20025;-53
2021/01/10 07:11:37;;;;;;;16.75;11.13;;;-0.80;99.90;;;;;;5031988;28;20033;-51
2021/01/10 07:14:05;;;;;;;17.05;10.95;;;-0.80;99.90;;;;;;5031906;28;20099;-55
2021/01/10 07:16:31;;;;;;;18.75;11.85;;;-0.90;99.90;;;;;;5031929;28;20034;-51
2021/01/10 07:18:59;;;;;;;15.95;10.60;;;-0.70;99.90;;;;;;5031806;28;20033;-56
2021/01/10 07:21:38;;;;;;;22.75;11.80;;;-0.60;99.90;;;;;;5031993;28;20053;-57
2021/01/10 07:24:13;;;;;;;14.77;10.43;;;-0.80;99.90;;;;;;5031813;28;20022;-56
2021/01/10 07:26:59;;;;;;;16.30;11.65;;;-0.80;99.90;;;;;;5032028;28;20032;-51
2021/01/10 07:29:24;;;;;;;;;;;-0.90;99.90;;;;;;5031017;28;20071;-55
2021/01/10 07:32:31;;;;;;;19.60;11.23;;;-0.80;99.90;;;;;;5032671;28;19913;-54
2021/01/10 07:34:57;;;;;;;18.83;12.07;;;-0.80;99.90;;;;;;5030211;28;20128;-53
2021/01/10 07:37:25;;;;;;;17.30;11.57;;;-0.80;99.90;;;;;;5029862;28;20681;-54
2021/01/10 07:39:56;;;;;;;17.48;11.30;;;-0.80;99.90;;;;;;5031415;28;20036;-57
2021/01/10 07:42:26;;;;;;;17.02;11.13;;;-0.80;99.90;;;;;;5031854;28;20025;-54
2021/01/10 07:44:57;;;;;;;19.60;12.15;;;-0.70;99.90;;;;;;5031144;28;20060;-54
2021/01/10 07:47:31;;;;;;;21.70;12.75;;;-0.70;99.90;;;;;;5031649;28;20045;-54
2021/01/10 07:50:07;;;;;;;18.17;12.23;;;-0.70;99.90;;;;;;5031480;28;20040;-53
2021/01/10 07:52:42;;;;;;;;;;;-0.70;99.90;;;;;;5031805;28;20043;-54
2021/01/10 07:55:19;;;;;;;17.73;10.32;;;-0.60;99.90;;;;;;5031444;28;19971;-53
2021/01/10 07:57:46;;;;;;;20.27;11.13;;;-0.50;99.90;;;;;;5031350;28;20103;-55
2021/01/10 08:00:27;;;;;;;16.30;10.52;;;-0.50;99.90;;;;;;5029774;28;20373;-54
2021/01/10 08:03:04;;;;;;;14.65;10.23;;;-0.40;99.90;;;;;;5031117;28;20273;-54
2021/01/10 08:05:39;;;;;;;16.98;11.00;;;-0.40;99.90;;;;;;5031341;28;20029;-52
2021/01/10 08:08:06;;;;;;;18.00;11.48;;;-0.40;99.90;;;;;;5031392;28;20163;-55
2021/01/10 08:10:43;;;;;;;15.63;10.07;;;;;;;;;;5031074;28;20496;-54
2021/01/10 08:13:44;;;;;;;15.15;10.82;;;-0.20;99.90;;;;;;5030806;28;20025;-49
2021/01/10 08:16:10;;;;;;;16.45;11.00;;;-0.40;99.90;;;;;;5027989;28;20500;-55
2021/01/10 08:18:36;;;;;;;16.92;12.25;;;-0.30;99.90;;;;;;5030645;28;20038;-53
2021/01/10 08:21:06;;;;;;;16.60;10.48;;;-0.30;99.90;;;;;;5029612;28;20025;-56
2021/01/10 08:23:32;;;;;;;19.60;11.07;;;-0.30;99.90;;;;;;5030687;28;20025;-52
2021/01/10 08:26:03;;;;;;;15.90;11.45;;;-0.20;99.90;;;;;;5030761;28;20516;-55
2021/01/10 08:28:31;;;;;;;16.17;9.73;;;-0.10;99.90;;;;;;5030161;28;20032;-54
2021/01/10 08:31:01;;;;;;;16.92;10.57;;;-0.10;99.90;;;;;;5029303;28;20037;-53
2021/01/10 08:33:27;;;;;;;14.65;10.07;;;0.00;99.90;;;;;;5030576;28;20032;-56
2021/01/10 08:35:52;;;;;;;16.35;11.80;;;0.10;99.90;;;;;;5030633;28;20034;-56
2021/01/10 08:38:18;;;;;;;16.98;10.95;;;0.10;99.90;;;;;;5030441;28;20033;-53
2021/01/10 08:40:43;;;;;;;18.77;12.27;;;0.00;99.90;;;;;;5030531;28;20065;-53
2021/01/10 08:43:09;;;;;;;16.52;11.00;;;0.00;99.90;;;;;;5030401;28;20131;-54
2021/01/10 08:45:35;;;;;;;15.27;11.07;;;0.10;99.90;;;;;;5030882;28;20052;-55
2021/01/10 08:48:05;;;;;;;17.55;11.88;;;0.10;99.90;;;;;;5030557;28;20091;-55
2021/01/10 08:50:43;;;;;;;18.88;12.35;;;0.20;99.90;;;;;;5030427;28;20034;-54
2021/01/10 08:53:08;;;;;;;14.80;10.07;;;0.20;99.90;;;;;;5030433;28;20124;-53
2021/01/10 08:55:40;;;;;;;16.35;11.32;;;0.20;99.90;;;;;;5030758;28;20461;-52
2021/01/10 08:58:08;;;;;;;17.52;12.35;;;0.20;99.90;;;;;;5030630;28;20493;-50
2021/01/10 09:00:35;;;;;;;17.30;12.40;;;0.30;99.90;;;;;;5030536;28;20034;-52
2021/01/10 09:03:17;;;;;;;17.02;11.73;;;0.50;99.90;;;;;;5030072;28;20033;-54
2021/01/10 09:05:49;;;;;;;16.73;10.40;;;1.30;99.90;;;;;;5030322;28;20441;-55
2021/01/10 09:08:27;;;;;;;16.55;10.77;;;2.20;99.10;;;;;;5030376;28;20022;-53
2021/01/10 09:11:03;;;;;;;16.13;10.93;;;3.30;97.30;;;;;;5030468;28;20053;-56
2021/01/10 09:13:33;;;;;;;13.32;9.70;;;5.30;93.00;;;;;;5030050;28;20108;-56
2021/01/10 09:16:00;;;;;;;13.27;9.20;;;5.70;91.70;;;;;;5027863;28;20033;-54
2021/01/10 09:18:28;;;;;;;13.15;8.88;;;6.60;89.30;;;;;;5028998;28;20029;-54
2021/01/10 09:21:00;;;;;;;12.27;9.63;;;7.60;82.90;;;;;;5030400;28;20064;-55
2021/01/10 09:23:26;;;;;;;12.98;10.45;;;8.10;79.30;;;;;;5030380;28;20032;-56
2021/01/10 09:25:52;;;;;;;12.73;9.45;;;8.50;76.70;;;;;;5030518;28;20093;-52
2021/01/10 09:28:19;;;;;;;12.85;9.80;;;8.60;76.40;;;;;;5030106;28;20092;-53
2021/01/10 09:30:53;;;;;;;14.05;10.75;;;8.60;73.50;;;;;;5029909;28;20066;-53
2021/01/10 09:33:26;;;;;;;14.98;10.45;;;8.50;74.50;;;;;;5019358;28;20076;-47
2021/01/10 09:35:52;;;;;;;12.50;9.30;;;8.70;74.70;;;;;;5030224;28;20041;-51
2021/01/10 09:38:20;;;;;;;12.63;10.82;;;9.00;73.70;;;;;;5029651;28;20025;-53
2021/01/10 09:41:06;;;;;;;16.88;10.70;;;9.20;70.20;;;;;;5033505;28;20013;-53
2021/01/10 09:43:38;;;;;;;11.23;9.80;;;9.30;70.40;;;;;;5033310;28;20068;-52
2021/01/10 09:46:32;;;;;;;17.10;10.43;;;9.60;69.70;;;;;;5033537;28;20046;-51
2021/01/10 09:49:00;;;;;;;13.27;10.27;;;10.00;68.20;;;;;;5033092;28;20109;-51
2021/01/10 09:51:35;;;;;;;16.55;10.80;;;10.30;65.90;;;;;;5033410;28;20053;-51
2021/01/10 09:54:14;;;;;;;10.63;9.45;;;10.30;64.80;;;;;;5033019;28;20084;-49
2021/01/10 09:56:39;;;;;;;10.18;8.63;;;9.60;65.80;;;;;;5033515;28;20025;-51
2021/01/10 09:59:24;;;;;;;10.32;8.63;;;9.60;67.90;;;;;;5033126;28;20424;-51
2021/01/10 10:01:52;;;;;;;10.98;8.68;;;9.50;69.90;;;;;;5033407;28;20025;-51
2021/01/10 10:04:27;;;;;;;10.13;8.10;;;10.00;66.00;;;;;;5032641;28;20036;-50
2021/01/10 10:06:53;;;;;;;;;;;10.10;64.30;;;;;;5032814;28;20132;-54
2021/01/10 10:09:18;;;;;;;11.82;8.55;;;9.90;65.00;;;;;;5031528;28;20384;-47
2021/01/10 10:11:44;;;;;;;10.27;8.63;;;10.00;64.90;;;;;;5032934;28;20041;-53
2021/01/10 10:14:10;;;;;;;8.27;7.10;;;10.10;64.80;;;;;;5032515;28;20443;-47
2021/01/10 10:16:36;;;;;;;11.25;7.15;;;10.00;63.30;;;;;;5032962;28;20029;-50
2021/01/10 10:19:02;;;;;;;10.05;8.18;;;9.60;62.60;;;;;;5032740;28;20060;-48
2021/01/10 10:21:27;;;;;;;8.85;7.25;;;9.40;65.20;;;;;;5032993;28;20025;-54
2021/01/10 10:23:53;;;;;;;9.25;7.32;;;9.00;67.50;;;;;;5032457;28;20033;-51
2021/01/10 10:26:18;;;;;;;10.60;7.88;;;9.00;66.80;;;;;;5032757;28;20140;-54
2021/01/10 10:28:44;;;;;;;7.53;6.72;;;8.80;68.30;;;;;;5032675;28;20155;-51
2021/01/10 10:31:12;;;;;;;6.60;6.00;;;8.80;69.80;;;;;;5032620;28;20400;-50
2021/01/10 10:33:38;;;;;;;8.23;6.82;;;8.70;68.40;;;;;;5032284;28;20044;-49
2021/01/10 10:36:04;;;;;;;11.88;8.18;;;8.70;69.90;;;;;;5032664;28;20488;-51
2021/01/10 10:38:31;;;;;;;8.65;6.93;;;8.90;69.50;;;;;;5032151;28;20041;-50
2021/01/10 10:40:57;;;;;;;8.02;6.72;;;9.10;67.80;;;;;;5031579;28;20041;-51
2021/01/10 10:43:23;;;;;;;7.80;7.00;;;9.40;66.30;;;;;;5031968;28;20071;-48
2021/01/10 10:45:48;;;;;;;7.55;6.28;;;9.70;63.20;;;;;;5031222;28;20045;-50
2021/01/10 10:48:14;;;;;;;7.28;6.32;;;9.70;62.60;;;;;;5032165;28;20031;-47
2021/01/10 10:50:39;;;;;;;7.18;6.13;;;9.80;63.00;;;;;;5031618;28;20420;-47
2021/01/10 10:53:05;;;;;;;6.93;6.20;;;9.70;62.50;;;;;;5032045;28;20037;-57
2021/01/10 10:55:32;;;;;;;6.35;5.70;;;9.70;61.50;;;;;;5032238;28;20028;-52
2021/01/10 10:57:58;;;;;;;7.22;5.80;;;9.40;62.10;;;;;;5031922;28;20018;-55
2021/01/10 11:00:24;;;;;;;9.20;7.32;;;9.10;64.70;;;;;;5032167;28;20025;-51
2021/01/10 11:02:49;;;;;;;8.40;6.20;;;8.20;68.90;;;;;;5031858;28;20025;-52
2021/01/10 11:05:15;;;;;;;7.50;6.22;;;7.50;73.10;;;;;;5032101;28;20028;-55
2021/01/10 11:07:41;;;;;;;8.80;6.43;;;7.00;76.30;;;;;;5031749;28;20100;-54
2021/01/10 11:10:07;;;;;;;8.70;6.25;;;6.50;80.50;;;;;;5030604;28;20493;-51
2021/01/10 11:12:33;;;;;;;7.78;6.15;;;6.50;79.40;;;;;;5031608;28;20087;-55
2021/01/10 11:15:04;;;;;;;8.15;6.63;;;6.50;79.00;;;;;;5031989;28;20447;-55
2021/01/10 11:17:29;;;;;;;8.32;6.45;;;6.50;80.00;;;;;;5031873;28;20481;-55
2021/01/10 11:19:55;;;;;;;9.63;7.13;;;6.40;80.30;;;;;;5031348;28;20037;-57
2021/01/10 11:22:20;;;;;;;9.73;8.10;;;6.30;80.50;;;;;;5031260;28;20721;-47
2021/01/10 11:24:46;;;;;;;10.07;7.88;;;6.00;83.20;;;;;;5031570;28;20029;-49
2021/01/10 11:27:11;;;;;;;8.30;7.10;;;5.80;84.90;;;;;;5031397;28;20060;-49
2021/01/10 11:29:38;;;;;;;9.25;7.75;;;5.80;85.50;;;;;;5031634;28;20057;-54
2021/01/10 11:32:04;;;;;;;11.52;8.40;;;5.60;86.40;;;;;;5031619;28;20057;-49
2021/01/10 11:34:30;;;;;;;8.15;7.00;;;5.60;87.60;;;;;;5032079;28;20033;-48
2021/01/10 11:36:56;;;;;;;9.60;7.32;;;5.20;88.80;;;;;;5031868;28;20021;-49
2021/01/10 11:39:25;;;;;;;9.88;7.47;;;4.80;90.20;;;;;;5031511;28;20079;-50
2021/01/10 11:41:53;;;;;;;8.80;6.47;;;4.70;90.40;;;;;;5031658;28;20626;-47
2021/01/10 11:44:20;;;;;;;8.30;6.32;;;4.50;90.60;;;;;;5031389;28;20076;-48
2021/01/10 11:46:48;;;;;;;8.73;6.70;;;4.20;91.10;;;;;;5031972;28;20489;-50
2021/01/10 11:49:14;;;;;;;8.45;6.65;;;4.30;90.40;;;;;;5031699;28;20099;-48
2021/01/10 11:51:39;;;;;;;9.90;7.05;;;4.40;90.40;;;;;;5031332;28;20030;-50
2021/01/10 11:54:06;;;;;;;8.77;6.32;;;4.40;90.70;;;;;;5031183;28;20104;-48
2021/01/10 11:56:31;;;;;;;7.10;6.18;;;4.40;91.00;;;;;;5031382;28;20017;-49
2021/01/10 11:58:58;;;;;;;7.40;6.43;;;4.40;90.50;;;;;;5031319;28;20025;-50
2021/01/10 12:01:33;;;;;;;6.22;5.43;;;4.20;90.30;;;;;;5030583;28;20460;-46
2021/01/10 12:04:00;;;;;;;7.05;6.10;;;4.10;90.80;;;;;;5030985;28;20112;-46
2021/01/10 12:06:25;;;;;;;7.22;5.90;;;4.10;90.80;;;;;;5031189;28;20108;-47
2021/01/10 12:08:51;;;;;;;6.43;5.65;;;4.00;90.90;;;;;;5031022;28;20139;-48
2021/01/10 12:11:17;;;;;;;6.35;4.95;;;4.00;90.20;;;;;;5031357;28;20044;-50
2021/01/10 12:13:43;;;;;;;6.45;5.20;;;3.90;89.40;;;;;;5031077;28;20035;-50
2021/01/10 12:16:13;;;;;;;6.00;5.22;;;3.90;90.20;;;;;;5031347;28;20025;-48
2021/01/10 12:18:40;;;;;;;7.80;5.38;;;3.80;90.20;;;;;;5030727;28;20404;-48
2021/01/10 12:21:07;;;;;;;17.58;9.18;;;3.90;90.00;;;;;;5030859;28;20092;-49
2021/01/10 12:23:32;;;;;;;15.88;11.25;;;3.80;90.30;;;;;;5030983;28;20025;-48
2021/01/10 12:25:58;;;;;;;9.82;7.78;;;3.90;90.00;;;;;;5030643;28;20032;-47
2021/01/10 12:28:23;;;;;;;7.32;5.70;;;4.00;90.00;;;;;;5030633;28;20029;-51
2021/01/10 12:30:49;;;;;;;7.60;5.57;;;4.00;90.00;;;;;;5030687;28;20026;-50
2021/01/10 12:33:14;;;;;;;8.90;5.60;;;4.10;90.00;;;;;;5030200;28;20108;-48
2021/01/10 12:35:40;;;;;;;7.75;5.85;;;4.10;90.00;;;;;;5030599;28;20029;-50
2021/01/10 12:38:05;;;;;;;8.45;6.32;;;4.10;90.10;;;;;;5030787;28;20022;-48
2021/01/10 12:40:31;;;;;;;7.90;5.90;;;4.00;90.10;;;;;;5030693;28;20075;-48
2021/01/10 12:42:56;;;;;;;7.55;5.10;;;4.00;90.10;;;;;;5030411;28;20096;-48
2021/01/10 12:45:22;;;;;;;6.75;5.55;;;3.90;90.50;;;;;;5030845;28;20485;-48